Terminal Aerodrome Forecast
Issued by NWS Twin Cities, MN

Home | Current Version | Previous Version | Text Only | Print | Product List | Glossary On
Versions: 1 2 3 4 5 6 7 8 9 10 11 12 13 14
602
FTUS43 KMPX 222330
TAFSTC
TAF
KSTC 222330Z 2300/2324 30013G20KT P6SM FEW060
     FM230200 31005KT P6SM SKC
     FM231600 35008KT P6SM SCT090=

USA.gov is the U.S. government's official web portal to all federal, state and local government web resources and services.